sensor_id;sensor_type;location;lat;lon;timestamp;P1;durP1;ratioP1;P2;durP2;ratioP2
12966;SDS011;6548;49.996;8.238;2022-08-19T00:01:40;18.85;;;13.60;;
12966;SDS011;6548;49.996;8.238;2022-08-19T00:04:10;19.98;;;14.38;;
12966;SDS011;6548;49.996;8.238;2022-08-19T00:06:39;22.15;;;13.52;;
12966;SDS011;6548;49.996;8.238;2022-08-19T00:09:07;19.17;;;15.15;;
12966;SDS011;6548;49.996;8.238;2022-08-19T00:11:34;21.63;;;15.35;;
12966;SDS011;6548;49.996;8.238;2022-08-19T00:14:02;20.30;;;14.70;;
12966;SDS011;6548;49.996;8.238;2022-08-19T00:16:30;20.48;;;15.02;;
12966;SDS011;6548;49.996;8.238;2022-08-19T00:18:55;21.75;;;15.43;;
12966;SDS011;6548;49.996;8.238;2022-08-19T00:21:22;22.20;;;15.90;;
12966;SDS011;6548;49.996;8.238;2022-08-19T00:23:48;24.77;;;16.70;;
12966;SDS011;6548;49.996;8.238;2022-08-19T00:26:14;20.65;;;15.10;;
12966;SDS011;6548;49.996;8.238;2022-08-19T00:28:39;20.65;;;15.15;;
12966;SDS011;6548;49.996;8.238;2022-08-19T00:31:06;22.83;;;15.90;;
12966;SDS011;6548;49.996;8.238;2022-08-19T00:33:33;24.33;;;15.98;;
12966;SDS011;6548;49.996;8.238;2022-08-19T00:36:07;18.98;;;14.20;;
12966;SDS011;6548;49.996;8.238;2022-08-19T00:38:34;18.27;;;14.80;;
12966;SDS011;6548;49.996;8.238;2022-08-19T00:41:01;22.23;;;15.50;;
12966;SDS011;6548;49.996;8.238;2022-08-19T00:43:27;22.65;;;15.60;;
12966;SDS011;6548;49.996;8.238;2022-08-19T00:45:52;21.15;;;15.68;;
12966;SDS011;6548;49.996;8.238;2022-08-19T00:48:19;19.38;;;14.95;;
12966;SDS011;6548;49.996;8.238;2022-08-19T00:50:46;22.15;;;14.88;;
12966;SDS011;6548;49.996;8.238;2022-08-19T00:53:14;21.88;;;15.52;;
12966;SDS011;6548;49.996;8.238;2022-08-19T00:55:42;20.98;;;16.10;;
12966;SDS011;6548;49.996;8.238;2022-08-19T00:58:12;21.42;;;16.55;;
12966;SDS011;6548;49.996;8.238;2022-08-19T01:00:40;19.70;;;15.05;;
12966;SDS011;6548;49.996;8.238;2022-08-19T01:03:11;20.08;;;14.93;;
12966;SDS011;6548;49.996;8.238;2022-08-19T01:05:40;20.13;;;14.45;;
12966;SDS011;6548;49.996;8.238;2022-08-19T01:08:07;20.17;;;14.73;;
12966;SDS011;6548;49.996;8.238;2022-08-19T01:10:36;21.45;;;15.20;;
12966;SDS011;6548;49.996;8.238;2022-08-19T01:13:06;18.55;;;15.13;;
12966;SDS011;6548;49.996;8.238;2022-08-19T01:15:35;18.17;;;14.32;;
12966;SDS011;6548;49.996;8.238;2022-08-19T01:18:08;21.25;;;14.98;;
12966;SDS011;6548;49.996;8.238;2022-08-19T01:20:35;20.05;;;14.38;;
12966;SDS011;6548;49.996;8.238;2022-08-19T01:23:01;22.50;;;15.10;;
12966;SDS011;6548;49.996;8.238;2022-08-19T01:25:30;23.10;;;15.57;;
12966;SDS011;6548;49.996;8.238;2022-08-19T01:27:59;19.17;;;14.27;;
12966;SDS011;6548;49.996;8.238;2022-08-19T01:30:26;20.70;;;14.90;;
12966;SDS011;6548;49.996;8.238;2022-08-19T01:32:54;20.55;;;14.73;;
12966;SDS011;6548;49.996;8.238;2022-08-19T01:35:21;19.95;;;14.40;;
12966;SDS011;6548;49.996;8.238;2022-08-19T01:37:50;19.95;;;14.57;;
12966;SDS011;6548;49.996;8.238;2022-08-19T01:40:21;20.35;;;15.48;;
12966;SDS011;6548;49.996;8.238;2022-08-19T01:42:50;19.73;;;14.35;;
12966;SDS011;6548;49.996;8.238;2022-08-19T01:45:18;19.73;;;14.35;;
12966;SDS011;6548;49.996;8.238;2022-08-19T01:47:45;20.45;;;14.35;;
12966;SDS011;6548;49.996;8.238;2022-08-19T01:50:12;19.33;;;14.27;;
12966;SDS011;6548;49.996;8.238;2022-08-19T01:52:38;17.50;;;13.70;;
12966;SDS011;6548;49.996;8.238;2022-08-19T01:55:06;18.08;;;13.38;;
12966;SDS011;6548;49.996;8.238;2022-08-19T01:57:33;19.20;;;14.02;;
12966;SDS011;6548;49.996;8.238;2022-08-19T01:59:59;16.63;;;13.73;;
12966;SDS011;6548;49.996;8.238;2022-08-19T02:02:27;18.13;;;13.93;;
12966;SDS011;6548;49.996;8.238;2022-08-19T02:04:52;22.45;;;15.32;;
12966;SDS011;6548;49.996;8.238;2022-08-19T02:07:19;16.95;;;12.93;;
12966;SDS011;6548;49.996;8.238;2022-08-19T02:09:46;18.80;;;14.38;;
12966;SDS011;6548;49.996;8.238;2022-08-19T02:12:13;22.55;;;14.90;;
12966;SDS011;6548;49.996;8.238;2022-08-19T02:14:39;20.27;;;15.32;;
12966;SDS011;6548;49.996;8.238;2022-08-19T02:17:05;18.08;;;14.02;;
12966;SDS011;6548;49.996;8.238;2022-08-19T02:19:31;19.75;;;14.13;;
12966;SDS011;6548;49.996;8.238;2022-08-19T02:21:57;18.38;;;14.07;;
12966;SDS011;6548;49.996;8.238;2022-08-19T02:24:24;17.48;;;14.35;;
12966;SDS011;6548;49.996;8.238;2022-08-19T02:26:50;18.67;;;14.10;;
12966;SDS011;6548;49.996;8.238;2022-08-19T02:29:16;19.23;;;13.90;;
12966;SDS011;6548;49.996;8.238;2022-08-19T02:31:42;18.85;;;14.25;;
12966;SDS011;6548;49.996;8.238;2022-08-19T02:34:07;18.35;;;12.98;;
12966;SDS011;6548;49.996;8.238;2022-08-19T02:36:33;19.88;;;13.25;;
12966;SDS011;6548;49.996;8.238;2022-08-19T02:38:59;15.68;;;12.23;;
12966;SDS011;6548;49.996;8.238;2022-08-19T02:41:26;16.58;;;12.20;;
12966;SDS011;6548;49.996;8.238;2022-08-19T02:43:57;15.52;;;12.10;;
12966;SDS011;6548;49.996;8.238;2022-08-19T02:46:26;16.92;;;13.15;;
12966;SDS011;6548;49.996;8.238;2022-08-19T02:48:54;17.38;;;12.55;;
12966;SDS011;6548;49.996;8.238;2022-08-19T02:51:23;16.45;;;12.38;;
12966;SDS011;6548;49.996;8.238;2022-08-19T02:53:51;14.32;;;11.25;;
12966;SDS011;6548;49.996;8.238;2022-08-19T02:56:17;14.90;;;11.55;;
12966;SDS011;6548;49.996;8.238;2022-08-19T02:58:43;15.63;;;12.60;;
12966;SDS011;6548;49.996;8.238;2022-08-19T03:01:09;15.57;;;12.65;;
12966;SDS011;6548;49.996;8.238;2022-08-19T03:03:36;20.10;;;13.50;;
12966;SDS011;6548;49.996;8.238;2022-08-19T03:06:03;15.30;;;11.57;;
12966;SDS011;6548;49.996;8.238;2022-08-19T03:08:34;15.50;;;12.20;;
12966;SDS011;6548;49.996;8.238;2022-08-19T03:10:59;16.50;;;12.05;;
12966;SDS011;6548;49.996;8.238;2022-08-19T03:13:25;16.05;;;12.32;;
12966;SDS011;6548;49.996;8.238;2022-08-19T03:15:51;13.57;;;11.45;;
12966;SDS011;6548;49.996;8.238;2022-08-19T03:18:16;16.50;;;11.48;;
12966;SDS011;6548;49.996;8.238;2022-08-19T03:20:43;17.20;;;13.45;;
12966;SDS011;6548;49.996;8.238;2022-08-19T03:23:10;15.98;;;11.65;;
12966;SDS011;6548;49.996;8.238;2022-08-19T03:25:41;17.35;;;11.82;;
12966;SDS011;6548;49.996;8.238;2022-08-19T03:30:36;16.60;;;12.43;;
12966;SDS011;6548;49.996;8.238;2022-08-19T03:33:04;15.18;;;11.75;;
12966;SDS011;6548;49.996;8.238;2022-08-19T03:35:30;15.73;;;11.93;;
12966;SDS011;6548;49.996;8.238;2022-08-19T03:37:56;13.45;;;10.65;;
12966;SDS011;6548;49.996;8.238;2022-08-19T03:40:23;15.30;;;12.85;;
12966;SDS011;6548;49.996;8.238;2022-08-19T03:42:50;16.92;;;11.93;;
12966;SDS011;6548;49.996;8.238;2022-08-19T03:45:15;14.95;;;11.55;;
12966;SDS011;6548;49.996;8.238;2022-08-19T03:47:41;14.45;;;12.00;;
12966;SDS011;6548;49.996;8.238;2022-08-19T03:50:07;15.82;;;11.93;;
12966;SDS011;6548;49.996;8.238;2022-08-19T03:52:33;15.13;;;12.05;;
12966;SDS011;6548;49.996;8.238;2022-08-19T03:55:00;19.88;;;12.95;;
12966;SDS011;6548;49.996;8.238;2022-08-19T03:57:27;15.00;;;11.27;;
12966;SDS011;6548;49.996;8.238;2022-08-19T03:59:52;15.52;;;12.90;;
12966;SDS011;6548;49.996;8.238;2022-08-19T04:02:18;19.45;;;13.50;;
12966;SDS011;6548;49.996;8.238;2022-08-19T04:04:43;17.05;;;12.80;;
12966;SDS011;6548;49.996;8.238;2022-08-19T04:07:10;18.25;;;12.68;;
12966;SDS011;6548;49.996;8.238;2022-08-19T04:09:37;14.88;;;11.98;;
12966;SDS011;6548;49.996;8.238;2022-08-19T04:12:03;16.55;;;13.05;;
12966;SDS011;6548;49.996;8.238;2022-08-19T04:14:30;16.50;;;12.43;;
12966;SDS011;6548;49.996;8.238;2022-08-19T04:16:57;16.52;;;12.35;;
12966;SDS011;6548;49.996;8.238;2022-08-19T04:19:24;17.40;;;13.30;;
12966;SDS011;6548;49.996;8.238;2022-08-19T04:21:51;14.85;;;12.40;;
12966;SDS011;6548;49.996;8.238;2022-08-19T04:24:18;17.90;;;12.55;;
12966;SDS011;6548;49.996;8.238;2022-08-19T04:26:45;17.15;;;12.10;;
12966;SDS011;6548;49.996;8.238;2022-08-19T04:29:13;16.63;;;12.35;;
12966;SDS011;6548;49.996;8.238;2022-08-19T04:31:42;13.23;;;10.85;;
12966;SDS011;6548;49.996;8.238;2022-08-19T04:34:09;16.80;;;12.13;;
12966;SDS011;6548;49.996;8.238;2022-08-19T04:36:36;14.90;;;11.93;;
12966;SDS011;6548;49.996;8.238;2022-08-19T04:39:05;15.65;;;11.77;;
12966;SDS011;6548;49.996;8.238;2022-08-19T04:41:34;15.02;;;12.25;;
12966;SDS011;6548;49.996;8.238;2022-08-19T04:44:18;13.77;;;11.25;;
12966;SDS011;6548;49.996;8.238;2022-08-19T04:46:45;17.10;;;12.18;;
12966;SDS011;6548;49.996;8.238;2022-08-19T04:49:13;14.45;;;11.20;;
12966;SDS011;6548;49.996;8.238;2022-08-19T04:51:40;14.32;;;11.30;;
12966;SDS011;6548;49.996;8.238;2022-08-19T04:54:07;14.80;;;11.48;;
12966;SDS011;6548;49.996;8.238;2022-08-19T04:56:33;14.27;;;10.43;;
12966;SDS011;6548;49.996;8.238;2022-08-19T04:58:59;16.23;;;12.13;;
12966;SDS011;6548;49.996;8.238;2022-08-19T05:01:29;16.80;;;11.65;;
12966;SDS011;6548;49.996;8.238;2022-08-19T05:03:57;17.75;;;12.32;;
12966;SDS011;6548;49.996;8.238;2022-08-19T05:06:25;14.65;;;11.77;;
12966;SDS011;6548;49.996;8.238;2022-08-19T05:08:50;13.98;;;10.82;;
12966;SDS011;6548;49.996;8.238;2022-08-19T05:11:17;14.02;;;11.60;;
12966;SDS011;6548;49.996;8.238;2022-08-19T05:13:45;15.73;;;11.63;;
12966;SDS011;6548;49.996;8.238;2022-08-19T05:16:14;13.82;;;11.73;;
12966;SDS011;6548;49.996;8.238;2022-08-19T05:18:42;14.63;;;11.90;;
12966;SDS011;6548;49.996;8.238;2022-08-19T05:21:27;16.45;;;12.23;;
12966;SDS011;6548;49.996;8.238;2022-08-19T05:24:12;16.02;;;11.65;;
12966;SDS011;6548;49.996;8.238;2022-08-19T05:26:40;13.98;;;11.57;;
12966;SDS011;6548;49.996;8.238;2022-08-19T05:29:11;16.05;;;12.98;;
12966;SDS011;6548;49.996;8.238;2022-08-19T05:31:38;14.52;;;11.63;;
12966;SDS011;6548;49.996;8.238;2022-08-19T05:34:04;16.33;;;11.98;;
12966;SDS011;6548;49.996;8.238;2022-08-19T05:36:33;14.80;;;11.73;;
12966;SDS011;6548;49.996;8.238;2022-08-19T05:39:04;14.73;;;11.82;;
12966;SDS011;6548;49.996;8.238;2022-08-19T05:41:31;13.38;;;10.75;;
12966;SDS011;6548;49.996;8.238;2022-08-19T05:43:57;15.25;;;11.13;;
12966;SDS011;6548;49.996;8.238;2022-08-19T05:46:23;15.18;;;11.85;;
12966;SDS011;6548;49.996;8.238;2022-08-19T05:48:49;17.40;;;12.23;;
12966;SDS011;6548;49.996;8.238;2022-08-19T05:51:15;15.27;;;11.27;;
12966;SDS011;6548;49.996;8.238;2022-08-19T05:53:40;16.45;;;11.95;;
12966;SDS011;6548;49.996;8.238;2022-08-19T05:56:07;13.90;;;11.40;;
12966;SDS011;6548;49.996;8.238;2022-08-19T05:58:35;13.10;;;11.25;;
12966;SDS011;6548;49.996;8.238;2022-08-19T06:01:01;13.73;;;10.85;;
12966;SDS011;6548;49.996;8.238;2022-08-19T06:03:30;13.90;;;10.70;;
12966;SDS011;6548;49.996;8.238;2022-08-19T06:05:58;13.40;;;10.63;;
12966;SDS011;6548;49.996;8.238;2022-08-19T06:08:24;13.25;;;10.30;;
12966;SDS011;6548;49.996;8.238;2022-08-19T06:10:51;13.35;;;10.88;;
12966;SDS011;6548;49.996;8.238;2022-08-19T06:13:16;14.45;;;11.23;;
12966;SDS011;6548;49.996;8.238;2022-08-19T06:15:44;15.27;;;10.65;;
12966;SDS011;6548;49.996;8.238;2022-08-19T06:18:11;13.35;;;10.10;;
12966;SDS011;6548;49.996;8.238;2022-08-19T06:20:37;14.02;;;11.02;;
12966;SDS011;6548;49.996;8.238;2022-08-19T06:23:03;14.43;;;10.48;;
12966;SDS011;6548;49.996;8.238;2022-08-19T06:25:28;14.30;;;11.00;;
12966;SDS011;6548;49.996;8.238;2022-08-19T06:27:55;13.48;;;9.95;;
12966;SDS011;6548;49.996;8.238;2022-08-19T06:30:20;12.68;;;9.75;;
12966;SDS011;6548;49.996;8.238;2022-08-19T06:32:46;14.50;;;10.18;;
12966;SDS011;6548;49.996;8.238;2022-08-19T06:35:12;13.40;;;9.38;;
12966;SDS011;6548;49.996;8.238;2022-08-19T06:37:39;11.38;;;9.88;;
12966;SDS011;6548;49.996;8.238;2022-08-19T06:40:05;11.57;;;9.68;;
12966;SDS011;6548;49.996;8.238;2022-08-19T06:42:33;10.43;;;9.25;;
12966;SDS011;6548;49.996;8.238;2022-08-19T06:44:59;13.55;;;10.70;;
12966;SDS011;6548;49.996;8.238;2022-08-19T06:47:28;13.30;;;9.23;;
12966;SDS011;6548;49.996;8.238;2022-08-19T06:49:57;13.07;;;9.00;;
12966;SDS011;6548;49.996;8.238;2022-08-19T06:52:31;10.07;;;8.70;;
12966;SDS011;6548;49.996;8.238;2022-08-19T06:54:58;10.27;;;8.82;;
12966;SDS011;6548;49.996;8.238;2022-08-19T06:57:25;12.50;;;8.63;;
12966;SDS011;6548;49.996;8.238;2022-08-19T06:59:51;9.52;;;7.78;;
12966;SDS011;6548;49.996;8.238;2022-08-19T07:02:17;9.90;;;7.90;;
12966;SDS011;6548;49.996;8.238;2022-08-19T07:04:44;10.75;;;7.93;;
12966;SDS011;6548;49.996;8.238;2022-08-19T07:07:11;8.68;;;7.18;;
12966;SDS011;6548;49.996;8.238;2022-08-19T07:09:39;12.38;;;8.38;;
12966;SDS011;6548;49.996;8.238;2022-08-19T07:12:07;9.88;;;6.95;;
12966;SDS011;6548;49.996;8.238;2022-08-19T07:14:36;8.85;;;7.05;;
12966;SDS011;6548;49.996;8.238;2022-08-19T07:17:04;8.95;;;6.40;;
12966;SDS011;6548;49.996;8.238;2022-08-19T07:19:31;10.15;;;7.35;;
12966;SDS011;6548;49.996;8.238;2022-08-19T07:21:57;9.25;;;6.82;;
12966;SDS011;6548;49.996;8.238;2022-08-19T07:24:26;7.63;;;6.53;;
12966;SDS011;6548;49.996;8.238;2022-08-19T07:26:53;7.53;;;6.13;;
12966;SDS011;6548;49.996;8.238;2022-08-19T07:29:21;7.60;;;6.60;;
12966;SDS011;6548;49.996;8.238;2022-08-19T07:31:48;9.35;;;7.50;;
12966;SDS011;6548;49.996;8.238;2022-08-19T07:34:15;9.35;;;7.28;;
12966;SDS011;6548;49.996;8.238;2022-08-19T07:36:41;10.45;;;6.72;;
12966;SDS011;6548;49.996;8.238;2022-08-19T07:39:09;8.73;;;6.10;;
12966;SDS011;6548;49.996;8.238;2022-08-19T07:41:50;8.15;;;6.88;;
12966;SDS011;6548;49.996;8.238;2022-08-19T07:44:17;8.18;;;7.22;;
12966;SDS011;6548;49.996;8.238;2022-08-19T07:46:46;8.43;;;7.00;;
12966;SDS011;6548;49.996;8.238;2022-08-19T07:49:14;11.55;;;8.15;;
12966;SDS011;6548;49.996;8.238;2022-08-19T07:52:17;8.82;;;7.93;;
12966;SDS011;6548;49.996;8.238;2022-08-19T07:54:36;10.52;;;8.80;;
12966;SDS011;6548;49.996;8.238;2022-08-19T07:57:03;8.10;;;7.03;;
12966;SDS011;6548;49.996;8.238;2022-08-19T07:59:30;11.80;;;8.55;;
12966;SDS011;6548;49.996;8.238;2022-08-19T08:01:56;8.90;;;7.40;;
12966;SDS011;6548;49.996;8.238;2022-08-19T08:04:24;9.60;;;7.70;;
12966;SDS011;6548;49.996;8.238;2022-08-19T08:07:09;11.52;;;8.32;;
12966;SDS011;6548;49.996;8.238;2022-08-19T08:09:53;11.45;;;9.75;;
12966;SDS011;6548;49.996;8.238;2022-08-19T08:12:26;10.48;;;9.38;;
12966;SDS011;6548;49.996;8.238;2022-08-19T08:14:56;12.07;;;10.05;;
12966;SDS011;6548;49.996;8.238;2022-08-19T08:17:25;13.57;;;10.98;;
12966;SDS011;6548;49.996;8.238;2022-08-19T08:19:52;13.13;;;9.50;;
12966;SDS011;6548;49.996;8.238;2022-08-19T08:22:19;12.35;;;9.52;;
12966;SDS011;6548;49.996;8.238;2022-08-19T08:25:09;10.85;;;9.80;;
12966;SDS011;6548;49.996;8.238;2022-08-19T08:27:38;15.57;;;12.95;;
12966;SDS011;6548;49.996;8.238;2022-08-19T08:30:07;11.98;;;10.18;;
12966;SDS011;6548;49.996;8.238;2022-08-19T08:32:35;14.70;;;11.80;;
12966;SDS011;6548;49.996;8.238;2022-08-19T08:35:02;16.67;;;14.30;;
12966;SDS011;6548;49.996;8.238;2022-08-19T08:37:31;21.77;;;16.83;;
12966;SDS011;6548;49.996;8.238;2022-08-19T08:39:57;23.25;;;17.65;;
12966;SDS011;6548;49.996;8.238;2022-08-19T08:42:28;19.35;;;15.15;;
12966;SDS011;6548;49.996;8.238;2022-08-19T08:45:00;15.40;;;13.38;;
12966;SDS011;6548;49.996;8.238;2022-08-19T08:47:31;17.25;;;13.40;;
12966;SDS011;6548;49.996;8.238;2022-08-19T08:50:08;14.23;;;11.53;;
12966;SDS011;6548;49.996;8.238;2022-08-19T08:52:41;13.10;;;11.50;;
12966;SDS011;6548;49.996;8.238;2022-08-19T08:55:12;15.02;;;11.85;;
12966;SDS011;6548;49.996;8.238;2022-08-19T08:58:02;11.75;;;10.38;;
12966;SDS011;6548;49.996;8.238;2022-08-19T09:00:35;11.80;;;10.38;;
12966;SDS011;6548;49.996;8.238;2022-08-19T09:03:03;10.50;;;9.45;;
12966;SDS011;6548;49.996;8.238;2022-08-19T09:08:34;10.13;;;9.13;;
12966;SDS011;6548;49.996;8.238;2022-08-19T09:11:06;10.35;;;8.77;;
12966;SDS011;6548;49.996;8.238;2022-08-19T09:13:48;10.57;;;7.38;;
12966;SDS011;6548;49.996;8.238;2022-08-19T09:16:34;9.93;;;8.88;;
12966;SDS011;6548;49.996;8.238;2022-08-19T09:19:02;11.80;;;8.88;;
12966;SDS011;6548;49.996;8.238;2022-08-19T09:21:29;10.20;;;8.50;;
12966;SDS011;6548;49.996;8.238;2022-08-19T09:23:54;9.43;;;8.48;;
12966;SDS011;6548;49.996;8.238;2022-08-19T09:26:21;11.52;;;8.18;;
12966;SDS011;6548;49.996;8.238;2022-08-19T09:28:48;9.35;;;8.20;;
12966;SDS011;6548;49.996;8.238;2022-08-19T09:31:16;8.07;;;7.28;;
12966;SDS011;6548;49.996;8.238;2022-08-19T09:33:43;8.40;;;7.38;;
12966;SDS011;6548;49.996;8.238;2022-08-19T09:36:11;9.40;;;8.38;;
12966;SDS011;6548;49.996;8.238;2022-08-19T09:38:39;9.13;;;8.10;;
12966;SDS011;6548;49.996;8.238;2022-08-19T09:41:11;13.73;;;11.93;;
12966;SDS011;6548;49.996;8.238;2022-08-19T09:43:38;11.80;;;10.45;;
12966;SDS011;6548;49.996;8.238;2022-08-19T09:46:05;12.40;;;11.30;;
12966;SDS011;6548;49.996;8.238;2022-08-19T09:48:34;13.77;;;12.45;;
12966;SDS011;6548;49.996;8.238;2022-08-19T09:51:08;12.38;;;11.27;;
12966;SDS011;6548;49.996;8.238;2022-08-19T09:53:35;12.23;;;10.93;;
12966;SDS011;6548;49.996;8.238;2022-08-19T09:56:02;12.07;;;10.88;;
12966;SDS011;6548;49.996;8.238;2022-08-19T09:58:29;12.88;;;11.60;;
12966;SDS011;6548;49.996;8.238;2022-08-19T10:00:55;14.57;;;12.25;;
12966;SDS011;6548;49.996;8.238;2022-08-19T10:03:23;10.50;;;9.45;;
12966;SDS011;6548;49.996;8.238;2022-08-19T10:05:49;10.38;;;9.43;;
12966;SDS011;6548;49.996;8.238;2022-08-19T10:08:20;10.52;;;9.52;;
12966;SDS011;6548;49.996;8.238;2022-08-19T10:10:50;9.75;;;8.63;;
12966;SDS011;6548;49.996;8.238;2022-08-19T10:13:17;9.48;;;8.68;;
12966;SDS011;6548;49.996;8.238;2022-08-19T10:15:49;9.27;;;8.38;;
12966;SDS011;6548;49.996;8.238;2022-08-19T10:18:23;10.10;;;8.07;;
12966;SDS011;6548;49.996;8.238;2022-08-19T10:20:50;7.80;;;7.00;;
12966;SDS011;6548;49.996;8.238;2022-08-19T10:23:18;9.30;;;7.28;;
12966;SDS011;6548;49.996;8.238;2022-08-19T10:25:44;8.77;;;7.55;;
12966;SDS011;6548;49.996;8.238;2022-08-19T10:28:10;12.25;;;7.85;;
12966;SDS011;6548;49.996;8.238;2022-08-19T10:30:39;8.63;;;7.72;;
12966;SDS011;6548;49.996;8.238;2022-08-19T10:33:05;8.52;;;7.72;;
12966;SDS011;6548;49.996;8.238;2022-08-19T10:35:31;7.43;;;6.70;;
12966;SDS011;6548;49.996;8.238;2022-08-19T10:37:57;7.70;;;6.90;;
12966;SDS011;6548;49.996;8.238;2022-08-19T10:40:27;6.55;;;5.90;;
12966;SDS011;6548;49.996;8.238;2022-08-19T10:42:53;6.60;;;5.90;;
12966;SDS011;6548;49.996;8.238;2022-08-19T10:45:20;6.60;;;6.07;;
12966;SDS011;6548;49.996;8.238;2022-08-19T10:47:48;6.95;;;6.38;;
12966;SDS011;6548;49.996;8.238;2022-08-19T10:50:13;7.57;;;6.63;;
12966;SDS011;6548;49.996;8.238;2022-08-19T10:53:02;10.02;;;6.65;;
12966;SDS011;6548;49.996;8.238;2022-08-19T10:55:35;8.50;;;6.60;;
12966;SDS011;6548;49.996;8.238;2022-08-19T10:58:20;6.20;;;5.63;;
12966;SDS011;6548;49.996;8.238;2022-08-19T11:00:54;6.97;;;6.22;;
12966;SDS011;6548;49.996;8.238;2022-08-19T11:03:21;6.40;;;5.80;;
12966;SDS011;6548;49.996;8.238;2022-08-19T11:05:56;6.40;;;5.63;;
12966;SDS011;6548;49.996;8.238;2022-08-19T11:08:30;6.65;;;5.07;;
12966;SDS011;6548;49.996;8.238;2022-08-19T11:10:59;6.57;;;5.97;;
12966;SDS011;6548;49.996;8.238;2022-08-19T11:13:29;7.70;;;5.57;;
12966;SDS011;6548;49.996;8.238;2022-08-19T11:15:58;7.13;;;6.35;;
12966;SDS011;6548;49.996;8.238;2022-08-19T11:18:31;6.63;;;6.00;;
12966;SDS011;6548;49.996;8.238;2022-08-19T11:23:42;6.75;;;6.07;;
12966;SDS011;6548;49.996;8.238;2022-08-19T11:26:08;6.68;;;6.00;;
12966;SDS011;6548;49.996;8.238;2022-08-19T11:28:34;7.80;;;5.10;;
12966;SDS011;6548;49.996;8.238;2022-08-19T11:31:00;6.15;;;5.65;;
12966;SDS011;6548;49.996;8.238;2022-08-19T11:33:28;5.45;;;5.00;;
12966;SDS011;6548;49.996;8.238;2022-08-19T11:35:56;6.55;;;5.95;;
12966;SDS011;6548;49.996;8.238;2022-08-19T11:38:24;6.55;;;5.95;;
12966;SDS011;6548;49.996;8.238;2022-08-19T11:40:56;6.82;;;6.22;;
12966;SDS011;6548;49.996;8.238;2022-08-19T11:43:24;6.40;;;5.90;;
12966;SDS011;6548;49.996;8.238;2022-08-19T11:45:51;6.80;;;6.03;;
12966;SDS011;6548;49.996;8.238;2022-08-19T11:48:20;6.78;;;6.18;;
12966;SDS011;6548;49.996;8.238;2022-08-19T11:50:51;6.82;;;6.22;;
12966;SDS011;6548;49.996;8.238;2022-08-19T11:53:20;6.80;;;6.10;;
12966;SDS011;6548;49.996;8.238;2022-08-19T11:55:49;6.38;;;5.82;;
12966;SDS011;6548;49.996;8.238;2022-08-19T11:58:15;6.78;;;6.03;;
12966;SDS011;6548;49.996;8.238;2022-08-19T12:00:42;7.88;;;5.40;;
12966;SDS011;6548;49.996;8.238;2022-08-19T12:03:10;7.28;;;6.68;;
12966;SDS011;6548;49.996;8.238;2022-08-19T12:05:37;7.00;;;6.30;;
12966;SDS011;6548;49.996;8.238;2022-08-19T12:08:04;6.00;;;5.53;;
12966;SDS011;6548;49.996;8.238;2022-08-19T12:10:30;6.60;;;6.10;;
12966;SDS011;6548;49.996;8.238;2022-08-19T12:12:57;7.63;;;6.88;;
12966;SDS011;6548;49.996;8.238;2022-08-19T12:15:22;7.15;;;6.55;;
12966;SDS011;6548;49.996;8.238;2022-08-19T12:17:48;5.93;;;5.43;;
12966;SDS011;6548;49.996;8.238;2022-08-19T12:20:13;5.78;;;5.32;;
12966;SDS011;6548;49.996;8.238;2022-08-19T12:22:42;5.95;;;5.35;;
12966;SDS011;6548;49.996;8.238;2022-08-19T12:25:11;6.18;;;5.68;;
12966;SDS011;6548;49.996;8.238;2022-08-19T12:27:37;7.97;;;5.70;;
12966;SDS011;6548;49.996;8.238;2022-08-19T12:30:04;6.20;;;5.60;;
12966;SDS011;6548;49.996;8.238;2022-08-19T12:32:31;6.90;;;5.35;;
12966;SDS011;6548;49.996;8.238;2022-08-19T12:34:57;7.10;;;6.43;;
12966;SDS011;6548;49.996;8.238;2022-08-19T12:37:23;6.80;;;6.30;;
12966;SDS011;6548;49.996;8.238;2022-08-19T12:39:48;6.20;;;5.18;;
12966;SDS011;6548;49.996;8.238;2022-08-19T12:42:14;6.32;;;5.80;;
12966;SDS011;6548;49.996;8.238;2022-08-19T12:44:40;6.10;;;5.60;;
12966;SDS011;6548;49.996;8.238;2022-08-19T12:47:07;5.80;;;5.18;;
12966;SDS011;6548;49.996;8.238;2022-08-19T12:49:34;6.10;;;5.50;;
12966;SDS011;6548;49.996;8.238;2022-08-19T12:52:02;5.22;;;4.72;;
12966;SDS011;6548;49.996;8.238;2022-08-19T12:54:29;5.97;;;5.45;;
12966;SDS011;6548;49.996;8.238;2022-08-19T12:56:55;5.05;;;4.65;;
12966;SDS011;6548;49.996;8.238;2022-08-19T12:59:21;5.43;;;4.93;;
12966;SDS011;6548;49.996;8.238;2022-08-19T13:01:47;5.55;;;5.05;;
12966;SDS011;6548;49.996;8.238;2022-08-19T13:04:13;6.25;;;4.78;;
12966;SDS011;6548;49.996;8.238;2022-08-19T13:06:38;5.90;;;5.40;;
12966;SDS011;6548;49.996;8.238;2022-08-19T13:09:04;7.25;;;5.80;;
12966;SDS011;6548;49.996;8.238;2022-08-19T13:11:30;5.90;;;5.20;;
12966;SDS011;6548;49.996;8.238;2022-08-19T13:13:58;5.47;;;5.05;;
12966;SDS011;6548;49.996;8.238;2022-08-19T13:16:24;5.93;;;5.35;;
12966;SDS011;6548;49.996;8.238;2022-08-19T13:18:51;5.68;;;5.18;;
12966;SDS011;6548;49.996;8.238;2022-08-19T13:21:17;5.78;;;4.97;;
12966;SDS011;6548;49.996;8.238;2022-08-19T13:23:44;4.88;;;4.47;;
12966;SDS011;6548;49.996;8.238;2022-08-19T13:26:11;5.45;;;4.80;;
12966;SDS011;6548;49.996;8.238;2022-08-19T13:28:38;5.47;;;4.97;;
12966;SDS011;6548;49.996;8.238;2022-08-19T13:31:24;5.18;;;4.22;;
12966;SDS011;6548;49.996;8.238;2022-08-19T13:34:10;5.05;;;4.60;;
12966;SDS011;6548;49.996;8.238;2022-08-19T13:36:36;5.35;;;4.85;;
12966;SDS011;6548;49.996;8.238;2022-08-19T13:39:03;5.93;;;4.63;;
12966;SDS011;6548;49.996;8.238;2022-08-19T13:41:29;4.78;;;4.20;;
12966;SDS011;6548;49.996;8.238;2022-08-19T13:43:55;4.65;;;4.22;;
12966;SDS011;6548;49.996;8.238;2022-08-19T13:46:21;4.47;;;4.07;;
12966;SDS011;6548;49.996;8.238;2022-08-19T13:48:48;4.57;;;4.18;;
12966;SDS011;6548;49.996;8.238;2022-08-19T13:51:15;4.35;;;3.88;;
12966;SDS011;6548;49.996;8.238;2022-08-19T13:53:41;4.95;;;3.50;;
12966;SDS011;6548;49.996;8.238;2022-08-19T13:56:09;4.05;;;3.65;;
12966;SDS011;6548;49.996;8.238;2022-08-19T13:58:40;3.78;;;3.47;;
12966;SDS011;6548;49.996;8.238;2022-08-19T14:01:06;4.43;;;3.92;;
12966;SDS011;6548;49.996;8.238;2022-08-19T14:03:32;4.03;;;3.72;;
12966;SDS011;6548;49.996;8.238;2022-08-19T14:05:58;4.30;;;3.90;;
12966;SDS011;6548;49.996;8.238;2022-08-19T14:08:24;3.92;;;3.55;;
12966;SDS011;6548;49.996;8.238;2022-08-19T14:10:50;5.20;;;4.70;;
12966;SDS011;6548;49.996;8.238;2022-08-19T14:13:17;5.07;;;4.68;;
12966;SDS011;6548;49.996;8.238;2022-08-19T14:15:45;4.97;;;4.47;;
12966;SDS011;6548;49.996;8.238;2022-08-19T14:18:12;5.30;;;4.80;;
12966;SDS011;6548;49.996;8.238;2022-08-19T14:20:38;4.78;;;4.38;;
12966;SDS011;6548;49.996;8.238;2022-08-19T14:23:04;5.70;;;4.78;;
12966;SDS011;6548;49.996;8.238;2022-08-19T14:25:32;4.55;;;4.15;;
12966;SDS011;6548;49.996;8.238;2022-08-19T14:27:59;4.43;;;4.05;;
12966;SDS011;6548;49.996;8.238;2022-08-19T14:30:26;4.45;;;4.05;;
12966;SDS011;6548;49.996;8.238;2022-08-19T14:32:54;5.90;;;4.07;;
12966;SDS011;6548;49.996;8.238;2022-08-19T14:35:20;5.57;;;5.07;;
12966;SDS011;6548;49.996;8.238;2022-08-19T14:37:47;5.30;;;4.80;;
12966;SDS011;6548;49.996;8.238;2022-08-19T14:40:15;6.03;;;5.53;;
12966;SDS011;6548;49.996;8.238;2022-08-19T14:42:42;5.30;;;4.82;;
12966;SDS011;6548;49.996;8.238;2022-08-19T14:45:09;5.93;;;4.85;;
12966;SDS011;6548;49.996;8.238;2022-08-19T14:47:37;5.10;;;4.60;;
12966;SDS011;6548;49.996;8.238;2022-08-19T14:50:04;5.07;;;4.55;;
12966;SDS011;6548;49.996;8.238;2022-08-19T14:52:34;6.53;;;4.57;;
12966;SDS011;6548;49.996;8.238;2022-08-19T14:54:59;5.00;;;4.57;;
12966;SDS011;6548;49.996;8.238;2022-08-19T14:57:25;7.35;;;4.75;;
12966;SDS011;6548;49.996;8.238;2022-08-19T14:59:50;4.90;;;4.40;;